Flight Track Log - Related Links

Times and Time Zones

All times are in EDT time to prevent confusion due to time zone crossing. See the SWA1681 flight status page for this flight to view local times or setup timezone preferences in your user account.

Time Position Orientation Groundspeed Altitude Reporting Facility
EDT Latitude Longitude Course Direction KTS MPH feet Rate Location/Type
Sat 03:06:26 PM 32.7500 -117.2500 315° West 207 238 2,100  Level Southern California TRACON
Sat 03:06:59 PM 32.7711 -117.2750 315° West 202 232 3,000 1,832 Climbing Los Angeles Center
Sat 03:08:01 PM 32.8125 -117.3481 304° West 249 287 5,000 2,710 Climbing Los Angeles Center
Sat 03:09:03 PM 32.8747 -117.4339 311° West 271 312 8,600 2,855 Climbing Los Angeles Center
Sat 03:10:05 PM 32.9311 -117.5053 313° West 282 325 10,900 2,256 Climbing Los Angeles Center
Sat 03:11:08 PM 32.9931 -117.5883 312° West 314 361 13,300 2,352 Climbing Los Angeles Center
Sat 03:12:10 PM 33.0567 -117.6728 312° West 332 382 15,800 2,081 Climbing Los Angeles Center
Sat 03:13:12 PM 33.1275 -117.7531 317° Northwest 343 395 17,600 1,984 Climbing Los Angeles Center
Sat 03:14:14 PM 33.2103 -117.8319 321° Northwest 379 436 19,900 1,984 Climbing Los Angeles Center
Sat 03:15:16 PM 33.3100 -117.9264 322° Northwest 383 441 21,700 1,742 Climbing Los Angeles Center
Sat 03:16:18 PM 33.3994 -117.9964 327° Northwest 383 441 23,500 1,500 Climbing Los Angeles Center
Sat 03:17:20 PM 33.4931 -118.0647 329° Northwest 390 449 24,800 1,355 Climbing Los Angeles Center
Sat 03:18:22 PM 33.5975 -118.1253 334° Northwest 412 474 26,300 1,452 Climbing Los Angeles Center
Sat 03:19:24 PM 33.7011 -118.1872 334° Northwest 414 476 27,800 1,548 Climbing Los Angeles Center
Sat 03:21:28 PM 33.9333 -118.3258 334° Northwest 436 502 31,100 1,355 Climbing Los Angeles Center
Sat 03:22:30 PM 34.0364 -118.3889 333° Northwest 424 488 32,000 968 Climbing Los Angeles Center
Sat 03:23:32 PM 34.1431 -118.4556 333° Northwest 428 493 33,100 1,548 Climbing Los Angeles Center
Sat 03:24:34 PM 34.2697 -118.5336 333° Northwest 426 490 35,200 1,403 Climbing Los Angeles Center
Sat 03:25:36 PM 34.3728 -118.5958 334° Northwest 416 479 36,000 435 Climbing Los Angeles Center
Sat 03:26:38 PM 34.4772 -118.6608 333° Northwest 418 481 36,100 48 Climbing Los Angeles Center
Sat 03:27:40 PM 34.5822 -118.7247 333° Northwest 420 483 36,100  Level Los Angeles Center
Sat 03:28:42 PM 34.6853 -118.7892 333° Northwest 418 481 36,100  Level Los Angeles Center
Sat 03:29:44 PM 34.7869 -118.8531 333° Northwest 416 479 36,100  Level Los Angeles Center
Sat 03:30:47 PM 34.8936 -118.9508 323° Northwest 405 466 36,100  Level Los Angeles Center
Sat 03:31:49 PM 34.9775 -119.0339 321° Northwest 400 460 36,100 -48 Level Los Angeles Center
Sat 03:32:51 PM 35.0661 -119.1183 322° Northwest 402 463 36,000 -48 Descending Los Angeles Center
Sat 03:33:53 PM 35.1536 -119.2039 321° Northwest 404 465 36,000  Level Los Angeles Center
Sat 03:34:55 PM 35.2414 -119.2897 321° Northwest 405 466 36,000  Level Los Angeles Center
Sat 03:35:57 PM 35.3450 -119.3908 321° Northwest 401 461 36,000 48 Level Los Angeles Center
Sat 03:36:59 PM 35.4314 -119.4769 321° Northwest 401 461 36,100 48 Climbing Los Angeles Center
Sat 03:38:01 PM 35.5192 -119.5642 321° Northwest 404 465 36,100 -48 Level Los Angeles Center
Sat 03:39:03 PM 35.6069 -119.6514 321° Northwest 404 465 36,000 -48 Descending Los Angeles Center
Sat 03:40:05 PM 35.6931 -119.7381 321° Northwest 405 466 36,000  Level Los Angeles Center
Sat 03:41:07 PM 35.7992 -119.8450 321° Northwest 409 471 36,000  Level Los Angeles Center
Sat 03:42:09 PM 35.8853 -119.9314 321° Northwest 405 466 36,000 48 Level Los Angeles Center
Sat 03:43:12 PM 35.9708 -120.0186 320° Northwest 405 466 36,100  Climbing Los Angeles Center
Sat 03:44:14 PM 36.0569 -120.1058 321° Northwest 404 465 36,000 -48 Descending Los Angeles Center
Sat 03:45:16 PM 36.1431 -120.1928 321° Northwest 403 464 36,000  Level Los Angeles Center
Sat 03:46:35 PM 36.2592 -120.3128 320° Northwest 395 455 36,000 43 Level Oakland Center
Sat 03:47:37 PM 36.3419 -120.3950 321° Northwest 386 444 36,100 -780 Climbing Oakland Center
Sat 03:48:38 PM 36.4264 -120.4803 321° Northwest 388 447 34,400 -2,195 Descending Oakland Center
Sat 03:49:40 PM 36.5103 -120.5717 319° Northwest 396 456 31,600 -2,634 Descending Oakland Center
Sat 03:50:41 PM 36.6119 -120.6703 322° Northwest 392 451 29,000 -2,244 Descending Oakland Center
Sat 03:51:43 PM 36.6917 -120.7544 320° Northwest 381 438 27,000 -2,000 Descending Oakland Center
Sat 03:52:44 PM 36.7675 -120.8403 318° Northwest 373 429 24,900 -2,049 Descending Oakland Center
Sat 03:53:46 PM 36.8417 -120.9244 318° Northwest 362 417 22,800 -2,000 Descending Oakland Center
Sat 03:54:47 PM 36.9131 -121.0075 317° Northwest 355 409 20,800 -1,902 Descending Oakland Center
Sat 03:55:49 PM 36.9811 -121.0872 317° Northwest 337 388 18,900 -2,000 Descending Oakland Center
Sat 03:56:50 PM 37.0583 -121.1742 318° Northwest 331 381 16,700 -1,854 Descending Oakland Center
Sat 03:57:52 PM 37.1139 -121.2397 317° Northwest 320 368 15,100 -1,805 Descending Oakland Center
Sat 03:58:53 PM 37.1906 -121.3278 318° Northwest 315 362 13,000 -1,902 Descending Oakland Center
Sat 03:59:55 PM 37.2522 -121.3978 318° Northwest 301 346 11,200 -1,463 Descending Oakland Center
Sat 04:00:56 PM 37.3100 -121.4669 316° Northwest 290 334 10,000 -1,033 Descending Oakland Center
Sat 04:01:57 PM 37.3561 -121.5239 316° Northwest 258 297 9,100 -1,121 Descending Oakland Center
Sat 04:02:43 PM 37.4000 -121.5833 313° West 248 285 8,000 -1,189 Descending Northern Cal TRACON
Sat 04:03:43 PM 37.4333 -121.6667 297° West 264 304 7,000 -667 Descending Northern Cal TRACON
Sat 04:05:43 PM 37.5000 -121.8167 299° West 254 292 6,000 -367 Descending Northern Cal TRACON
Sat 04:06:43 PM 37.5333 -121.8833 302° West 233 268 5,900 -900 Descending Northern Cal TRACON
Sat 04:07:43 PM 37.5667 -121.9667 297° West 256 295 4,200 -1,300 Descending Northern Cal TRACON
Sat 04:08:43 PM 37.6000 -122.0333 302° West 244 281 3,300 -900 Descending Northern Cal TRACON
Sat 04:09:43 PM 37.6333 -122.1000 302° West 192 221 2,400 -850 Descending Northern Cal TRACON
Sat 04:10:43 PM 37.6500 -122.1500 293° West 145 167 1,600 5,029 Descending Northern Cal TRACON
Sat 04:13:13 PM 37.7117 -122.2311 314° West 139 160 20,000 7,360 Climbing Oakland Center

Login

Don't have an account? Register now (free) for customized features, flight alerts, and more!